sensor_id;sensor_type;location;lat;lon;timestamp;P1;durP1;ratioP1;P2;durP2;ratioP2
69369;SDS011;56530;42.640;23.372;2023-08-01T00:02:06;2.47;;;1.97;;
69369;SDS011;56530;42.640;23.372;2023-08-01T00:04:32;1.97;;;1.87;;
69369;SDS011;56530;42.640;23.372;2023-08-01T00:06:57;2.10;;;1.98;;
69369;SDS011;56530;42.640;23.372;2023-08-01T00:09:22;2.37;;;2.17;;
69369;SDS011;56530;42.640;23.372;2023-08-01T00:11:48;3.20;;;2.10;;
69369;SDS011;56530;42.640;23.372;2023-08-01T00:14:13;1.97;;;1.83;;
69369;SDS011;56530;42.640;23.372;2023-08-01T00:16:39;3.07;;;1.87;;
69369;SDS011;56530;42.640;23.372;2023-08-01T00:19:04;2.20;;;2.00;;
69369;SDS011;56530;42.640;23.372;2023-08-01T00:21:29;2.40;;;2.05;;
69369;SDS011;56530;42.640;23.372;2023-08-01T00:23:57;2.03;;;1.92;;
69369;SDS011;56530;42.640;23.372;2023-08-01T00:26:22;2.67;;;2.20;;
69369;SDS011;56530;42.640;23.372;2023-08-01T00:28:47;2.97;;;2.10;;
69369;SDS011;56530;42.640;23.372;2023-08-01T00:31:14;2.00;;;1.88;;
69369;SDS011;56530;42.640;23.372;2023-08-01T00:33:39;2.40;;;2.20;;
69369;SDS011;56530;42.640;23.372;2023-08-01T00:36:04;2.23;;;2.00;;
69369;SDS011;56530;42.640;23.372;2023-08-01T00:38:34;3.63;;;2.03;;
69369;SDS011;56530;42.640;23.372;2023-08-01T00:41:00;3.22;;;2.35;;
69369;SDS011;56530;42.640;23.372;2023-08-01T00:43:26;2.33;;;1.90;;
69369;SDS011;56530;42.640;23.372;2023-08-01T00:45:51;2.27;;;1.80;;
69369;SDS011;56530;42.640;23.372;2023-08-01T00:48:18;2.17;;;2.05;;
69369;SDS011;56530;42.640;23.372;2023-08-01T00:50:44;1.77;;;1.67;;
69369;SDS011;56530;42.640;23.372;2023-08-01T00:53:09;5.03;;;2.23;;
69369;SDS011;56530;42.640;23.372;2023-08-01T00:55:35;2.30;;;2.10;;
69369;SDS011;56530;42.640;23.372;2023-08-01T00:58:00;4.03;;;2.13;;
69369;SDS011;56530;42.640;23.372;2023-08-01T01:00:26;2.27;;;2.07;;
69369;SDS011;56530;42.640;23.372;2023-08-01T01:02:51;2.60;;;2.40;;
69369;SDS011;56530;42.640;23.372;2023-08-01T01:05:17;3.17;;;2.30;;
69369;SDS011;56530;42.640;23.372;2023-08-01T01:07:42;2.63;;;2.43;;
69369;SDS011;56530;42.640;23.372;2023-08-01T01:10:09;2.67;;;1.95;;
69369;SDS011;56530;42.640;23.372;2023-08-01T01:12:35;2.33;;;2.10;;
69369;SDS011;56530;42.640;23.372;2023-08-01T01:15:00;2.60;;;2.10;;
69369;SDS011;56530;42.640;23.372;2023-08-01T01:17:25;2.27;;;2.00;;
69369;SDS011;56530;42.640;23.372;2023-08-01T01:19:51;2.30;;;2.10;;
69369;SDS011;56530;42.640;23.372;2023-08-01T01:22:16;2.60;;;1.93;;
69369;SDS011;56530;42.640;23.372;2023-08-01T01:24:42;2.05;;;1.70;;
69369;SDS011;56530;42.640;23.372;2023-08-01T01:27:08;2.28;;;2.08;;
69369;SDS011;56530;42.640;23.372;2023-08-01T01:29:34;2.17;;;1.98;;
69369;SDS011;56530;42.640;23.372;2023-08-01T01:32:00;2.10;;;1.90;;
69369;SDS011;56530;42.640;23.372;2023-08-01T01:34:26;2.60;;;1.90;;
69369;SDS011;56530;42.640;23.372;2023-08-01T01:36:55;2.33;;;2.00;;
69369;SDS011;56530;42.640;23.372;2023-08-01T01:39:20;4.13;;;2.03;;
69369;SDS011;56530;42.640;23.372;2023-08-01T01:41:45;1.93;;;1.83;;
69369;SDS011;56530;42.640;23.372;2023-08-01T01:44:11;2.35;;;2.00;;
69369;SDS011;56530;42.640;23.372;2023-08-01T01:46:36;2.35;;;2.15;;
69369;SDS011;56530;42.640;23.372;2023-08-01T01:49:02;3.13;;;2.03;;
69369;SDS011;56530;42.640;23.372;2023-08-01T01:51:28;2.00;;;1.90;;
69369;SDS011;56530;42.640;23.372;2023-08-01T01:53:54;9.13;;;2.23;;
69369;SDS011;56530;42.640;23.372;2023-08-01T01:56:19;1.80;;;1.70;;
69369;SDS011;56530;42.640;23.372;2023-08-01T01:58:45;2.60;;;2.40;;
69369;SDS011;56530;42.640;23.372;2023-08-01T02:01:10;3.40;;;1.90;;
69369;SDS011;56530;42.640;23.372;2023-08-01T02:03:35;2.00;;;1.90;;
69369;SDS011;56530;42.640;23.372;2023-08-01T02:06:01;2.90;;;2.22;;
69369;SDS011;56530;42.640;23.372;2023-08-01T02:08:28;2.38;;;2.00;;
69369;SDS011;56530;42.640;23.372;2023-08-01T02:10:54;4.38;;;2.05;;
69369;SDS011;56530;42.640;23.372;2023-08-01T02:13:23;2.90;;;2.30;;
69369;SDS011;56530;42.640;23.372;2023-08-01T02:15:48;2.38;;;2.15;;
69369;SDS011;56530;42.640;23.372;2023-08-01T02:18:14;5.63;;;2.30;;
69369;SDS011;56530;42.640;23.372;2023-08-01T02:20:39;3.07;;;2.20;;
69369;SDS011;56530;42.640;23.372;2023-08-01T02:23:04;3.25;;;2.00;;
69369;SDS011;56530;42.640;23.372;2023-08-01T02:25:30;3.43;;;2.20;;
69369;SDS011;56530;42.640;23.372;2023-08-01T02:27:55;3.83;;;2.13;;
69369;SDS011;56530;42.640;23.372;2023-08-01T02:30:20;6.40;;;2.43;;
69369;SDS011;56530;42.640;23.372;2023-08-01T02:32:46;4.50;;;2.17;;
69369;SDS011;56530;42.640;23.372;2023-08-01T02:35:11;2.63;;;2.10;;
69369;SDS011;56530;42.640;23.372;2023-08-01T02:37:37;4.47;;;2.17;;
69369;SDS011;56530;42.640;23.372;2023-08-01T02:40:03;2.10;;;2.00;;
69369;SDS011;56530;42.640;23.372;2023-08-01T02:42:32;5.40;;;2.50;;
69369;SDS011;56530;42.640;23.372;2023-08-01T02:44:57;5.82;;;3.00;;
69369;SDS011;56530;42.640;23.372;2023-08-01T02:47:23;3.10;;;2.77;;
69369;SDS011;56530;42.640;23.372;2023-08-01T02:49:48;4.73;;;3.10;;
69369;SDS011;56530;42.640;23.372;2023-08-01T02:52:14;3.08;;;2.58;;
69369;SDS011;56530;42.640;23.372;2023-08-01T02:54:39;2.53;;;2.33;;
69369;SDS011;56530;42.640;23.372;2023-08-01T02:57:04;3.23;;;2.37;;
69369;SDS011;56530;42.640;23.372;2023-08-01T02:59:31;5.25;;;3.10;;
69369;SDS011;56530;42.640;23.372;2023-08-01T03:01:58;3.83;;;2.28;;
69369;SDS011;56530;42.640;23.372;2023-08-01T03:04:24;2.97;;;2.63;;
69369;SDS011;56530;42.640;23.372;2023-08-01T03:06:49;2.40;;;2.13;;
69369;SDS011;56530;42.640;23.372;2023-08-01T03:09:15;3.97;;;2.40;;
69369;SDS011;56530;42.640;23.372;2023-08-01T03:11:40;5.17;;;2.17;;
69369;SDS011;56530;42.640;23.372;2023-08-01T03:14:06;3.08;;;2.40;;
69369;SDS011;56530;42.640;23.372;2023-08-01T03:16:31;4.10;;;2.37;;
69369;SDS011;56530;42.640;23.372;2023-08-01T03:18:57;3.60;;;2.30;;
69369;SDS011;56530;42.640;23.372;2023-08-01T03:21:24;3.90;;;2.38;;
69369;SDS011;56530;42.640;23.372;2023-08-01T03:23:51;3.00;;;2.37;;
69369;SDS011;56530;42.640;23.372;2023-08-01T03:26:16;2.97;;;2.30;;
69369;SDS011;56530;42.640;23.372;2023-08-01T03:28:43;2.55;;;2.35;;
69369;SDS011;56530;42.640;23.372;2023-08-01T03:31:08;2.77;;;2.53;;
69369;SDS011;56530;42.640;23.372;2023-08-01T03:33:34;4.30;;;2.43;;
69369;SDS011;56530;42.640;23.372;2023-08-01T03:35:59;3.43;;;2.60;;
69369;SDS011;56530;42.640;23.372;2023-08-01T03:38:25;2.80;;;2.60;;
69369;SDS011;56530;42.640;23.372;2023-08-01T03:40:50;5.00;;;2.92;;
69369;SDS011;56530;42.640;23.372;2023-08-01T03:43:16;3.90;;;3.00;;
69369;SDS011;56530;42.640;23.372;2023-08-01T03:45:41;4.00;;;3.03;;
69369;SDS011;56530;42.640;23.372;2023-08-01T03:48:06;6.53;;;3.80;;
69369;SDS011;56530;42.640;23.372;2023-08-01T03:50:32;5.30;;;4.10;;
69369;SDS011;56530;42.640;23.372;2023-08-01T03:52:57;5.20;;;4.20;;
69369;SDS011;56530;42.640;23.372;2023-08-01T03:55:23;4.53;;;3.63;;
69369;SDS011;56530;42.640;23.372;2023-08-01T03:57:48;5.40;;;3.60;;
69369;SDS011;56530;42.640;23.372;2023-08-01T04:00:13;4.40;;;3.40;;
69369;SDS011;56530;42.640;23.372;2023-08-01T04:02:39;3.57;;;3.23;;
69369;SDS011;56530;42.640;23.372;2023-08-01T04:05:06;3.45;;;2.75;;
69369;SDS011;56530;42.640;23.372;2023-08-01T04:07:32;6.67;;;3.23;;
69369;SDS011;56530;42.640;23.372;2023-08-01T04:09:57;6.27;;;2.93;;
69369;SDS011;56530;42.640;23.372;2023-08-01T04:12:23;4.63;;;2.77;;
69369;SDS011;56530;42.640;23.372;2023-08-01T04:14:48;4.15;;;2.65;;
69369;SDS011;56530;42.640;23.372;2023-08-01T04:17:14;3.80;;;2.43;;
69369;SDS011;56530;42.640;23.372;2023-08-01T04:19:39;3.17;;;2.67;;
69369;SDS011;56530;42.640;23.372;2023-08-01T04:22:05;3.70;;;3.23;;
69369;SDS011;56530;42.640;23.372;2023-08-01T04:24:30;2.92;;;2.72;;
69369;SDS011;56530;42.640;23.372;2023-08-01T04:26:56;5.60;;;3.25;;
69369;SDS011;56530;42.640;23.372;2023-08-01T04:29:21;4.68;;;3.67;;
69369;SDS011;56530;42.640;23.372;2023-08-01T04:31:46;3.83;;;3.50;;
69369;SDS011;56530;42.640;23.372;2023-08-01T04:34:12;6.13;;;3.50;;
69369;SDS011;56530;42.640;23.372;2023-08-01T04:36:38;5.75;;;3.55;;
69369;SDS011;56530;42.640;23.372;2023-08-01T04:39:03;5.70;;;3.40;;
69369;SDS011;56530;42.640;23.372;2023-08-01T04:41:29;6.20;;;3.30;;
69369;SDS011;56530;42.640;23.372;2023-08-01T04:43:54;5.67;;;3.40;;
69369;SDS011;56530;42.640;23.372;2023-08-01T04:46:19;5.33;;;3.70;;
69369;SDS011;56530;42.640;23.372;2023-08-01T04:48:45;9.90;;;3.93;;
69369;SDS011;56530;42.640;23.372;2023-08-01T04:51:10;4.30;;;3.23;;
69369;SDS011;56530;42.640;23.372;2023-08-01T04:53:35;3.83;;;3.43;;
69369;SDS011;56530;42.640;23.372;2023-08-01T04:56:01;4.80;;;3.13;;
69369;SDS011;56530;42.640;23.372;2023-08-01T04:58:26;3.47;;;2.90;;
69369;SDS011;56530;42.640;23.372;2023-08-01T05:00:52;7.67;;;3.97;;
69369;SDS011;56530;42.640;23.372;2023-08-01T05:03:17;3.88;;;3.03;;
69369;SDS011;56530;42.640;23.372;2023-08-01T05:05:43;3.85;;;3.20;;
69369;SDS011;56530;42.640;23.372;2023-08-01T05:08:08;4.30;;;2.70;;
69369;SDS011;56530;42.640;23.372;2023-08-01T05:10:33;2.80;;;2.50;;
69369;SDS011;56530;42.640;23.372;2023-08-01T05:12:59;7.50;;;3.10;;
69369;SDS011;56530;42.640;23.372;2023-08-01T05:15:24;5.07;;;3.10;;
69369;SDS011;56530;42.640;23.372;2023-08-01T05:17:50;3.28;;;2.63;;
69369;SDS011;56530;42.640;23.372;2023-08-01T05:20:15;3.37;;;2.50;;
69369;SDS011;56530;42.640;23.372;2023-08-01T05:22:41;6.17;;;2.93;;
69369;SDS011;56530;42.640;23.372;2023-08-01T05:25:06;3.20;;;2.70;;
69369;SDS011;56530;42.640;23.372;2023-08-01T05:27:32;5.70;;;3.10;;
69369;SDS011;56530;42.640;23.372;2023-08-01T05:29:59;7.20;;;2.87;;
69369;SDS011;56530;42.640;23.372;2023-08-01T05:32:24;4.40;;;2.90;;
69369;SDS011;56530;42.640;23.372;2023-08-01T05:34:49;5.10;;;2.93;;
69369;SDS011;56530;42.640;23.372;2023-08-01T05:37:15;4.28;;;2.75;;
69369;SDS011;56530;42.640;23.372;2023-08-01T05:39:40;3.00;;;2.60;;
69369;SDS011;56530;42.640;23.372;2023-08-01T05:42:06;3.23;;;2.57;;
69369;SDS011;56530;42.640;23.372;2023-08-01T05:44:33;5.32;;;2.60;;
69369;SDS011;56530;42.640;23.372;2023-08-01T05:46:59;3.40;;;3.10;;
69369;SDS011;56530;42.640;23.372;2023-08-01T05:49:24;3.00;;;2.80;;
69369;SDS011;56530;42.640;23.372;2023-08-01T05:51:50;5.55;;;3.10;;
69369;SDS011;56530;42.640;23.372;2023-08-01T05:54:15;4.27;;;3.20;;
69369;SDS011;56530;42.640;23.372;2023-08-01T05:56:41;9.20;;;2.93;;
69369;SDS011;56530;42.640;23.372;2023-08-01T05:59:06;3.47;;;3.10;;
69369;SDS011;56530;42.640;23.372;2023-08-01T06:01:31;6.20;;;3.30;;
69369;SDS011;56530;42.640;23.372;2023-08-01T06:03:57;5.17;;;3.03;;
69369;SDS011;56530;42.640;23.372;2023-08-01T06:06:22;5.00;;;3.00;;
69369;SDS011;56530;42.640;23.372;2023-08-01T06:08:48;6.40;;;3.17;;
69369;SDS011;56530;42.640;23.372;2023-08-01T06:11:13;7.70;;;2.87;;
69369;SDS011;56530;42.640;23.372;2023-08-01T06:13:38;4.97;;;2.60;;
69369;SDS011;56530;42.640;23.372;2023-08-01T06:16:04;6.55;;;3.15;;
69369;SDS011;56530;42.640;23.372;2023-08-01T06:18:29;6.93;;;3.33;;
69369;SDS011;56530;42.640;23.372;2023-08-01T06:20:55;15.32;;;3.67;;
69369;SDS011;56530;42.640;23.372;2023-08-01T06:23:21;6.82;;;3.58;;
69369;SDS011;56530;42.640;23.372;2023-08-01T06:25:46;8.03;;;3.00;;
69369;SDS011;56530;42.640;23.372;2023-08-01T06:28:12;8.63;;;2.90;;
69369;SDS011;56530;42.640;23.372;2023-08-01T06:30:37;8.93;;;3.13;;
69369;SDS011;56530;42.640;23.372;2023-08-01T06:33:03;10.68;;;3.42;;
69369;SDS011;56530;42.640;23.372;2023-08-01T06:35:28;9.93;;;3.30;;
69369;SDS011;56530;42.640;23.372;2023-08-01T06:37:53;6.80;;;3.73;;
69369;SDS011;56530;42.640;23.372;2023-08-01T06:40:19;7.43;;;3.42;;
69369;SDS011;56530;42.640;23.372;2023-08-01T06:42:45;4.65;;;3.00;;
69369;SDS011;56530;42.640;23.372;2023-08-01T06:45:10;4.85;;;3.05;;
69369;SDS011;56530;42.640;23.372;2023-08-01T06:47:36;5.47;;;3.23;;
69369;SDS011;56530;42.640;23.372;2023-08-01T06:50:01;14.27;;;3.90;;
69369;SDS011;56530;42.640;23.372;2023-08-01T06:52:26;16.57;;;3.93;;
69369;SDS011;56530;42.640;23.372;2023-08-01T06:54:52;6.80;;;2.70;;
69369;SDS011;56530;42.640;23.372;2023-08-01T06:57:17;3.23;;;2.93;;
69369;SDS011;56530;42.640;23.372;2023-08-01T06:59:42;5.20;;;2.97;;
69369;SDS011;56530;42.640;23.372;2023-08-01T07:02:08;5.30;;;3.20;;
69369;SDS011;56530;42.640;23.372;2023-08-01T07:04:33;9.40;;;3.33;;
69369;SDS011;56530;42.640;23.372;2023-08-01T07:06:59;7.30;;;3.70;;
69369;SDS011;56530;42.640;23.372;2023-08-01T07:09:25;5.77;;;3.33;;
69369;SDS011;56530;42.640;23.372;2023-08-01T07:11:50;6.77;;;3.10;;
69369;SDS011;56530;42.640;23.372;2023-08-01T07:14:15;4.32;;;3.30;;
69369;SDS011;56530;42.640;23.372;2023-08-01T07:16:41;4.03;;;2.70;;
69369;SDS011;56530;42.640;23.372;2023-08-01T07:19:06;6.87;;;2.77;;
69369;SDS011;56530;42.640;23.372;2023-08-01T07:21:32;5.15;;;3.30;;
69369;SDS011;56530;42.640;23.372;2023-08-01T07:23:57;7.47;;;3.60;;
69369;SDS011;56530;42.640;23.372;2023-08-01T07:26:23;5.50;;;3.50;;
69369;SDS011;56530;42.640;23.372;2023-08-01T07:28:48;5.23;;;3.10;;
69369;SDS011;56530;42.640;23.372;2023-08-01T07:31:13;4.55;;;2.92;;
69369;SDS011;56530;42.640;23.372;2023-08-01T07:33:39;8.13;;;3.67;;
69369;SDS011;56530;42.640;23.372;2023-08-01T07:36:04;8.37;;;3.60;;
69369;SDS011;56530;42.640;23.372;2023-08-01T07:38:30;5.93;;;2.75;;
69369;SDS011;56530;42.640;23.372;2023-08-01T07:40:56;6.10;;;3.05;;
69369;SDS011;56530;42.640;23.372;2023-08-01T07:43:22;5.93;;;3.30;;
69369;SDS011;56530;42.640;23.372;2023-08-01T07:45:48;4.30;;;3.15;;
69369;SDS011;56530;42.640;23.372;2023-08-01T07:48:15;3.13;;;2.75;;
69369;SDS011;56530;42.640;23.372;2023-08-01T07:50:41;5.53;;;2.97;;
69369;SDS011;56530;42.640;23.372;2023-08-01T07:53:06;2.65;;;2.45;;
69369;SDS011;56530;42.640;23.372;2023-08-01T07:55:35;4.50;;;2.90;;
69369;SDS011;56530;42.640;23.372;2023-08-01T07:58:00;6.18;;;3.33;;
69369;SDS011;56530;42.640;23.372;2023-08-01T08:00:26;4.57;;;2.95;;
69369;SDS011;56530;42.640;23.372;2023-08-01T08:02:52;4.78;;;3.97;;
69369;SDS011;56530;42.640;23.372;2023-08-01T08:05:18;6.82;;;3.30;;
69369;SDS011;56530;42.640;23.372;2023-08-01T08:07:44;4.07;;;3.03;;
69369;SDS011;56530;42.640;23.372;2023-08-01T08:10:09;6.67;;;3.77;;
69369;SDS011;56530;42.640;23.372;2023-08-01T08:12:34;3.47;;;3.15;;
69369;SDS011;56530;42.640;23.372;2023-08-01T08:15:00;5.27;;;3.60;;
69369;SDS011;56530;42.640;23.372;2023-08-01T08:17:25;6.17;;;3.77;;
69369;SDS011;56530;42.640;23.372;2023-08-01T08:19:51;8.90;;;4.27;;
69369;SDS011;56530;42.640;23.372;2023-08-01T08:22:16;5.32;;;3.53;;
69369;SDS011;56530;42.640;23.372;2023-08-01T08:24:41;11.03;;;3.93;;
69369;SDS011;56530;42.640;23.372;2023-08-01T08:27:07;8.90;;;4.00;;
69369;SDS011;56530;42.640;23.372;2023-08-01T08:29:32;7.80;;;3.42;;
69369;SDS011;56530;42.640;23.372;2023-08-01T08:31:58;5.18;;;3.47;;
69369;SDS011;56530;42.640;23.372;2023-08-01T08:34:23;6.68;;;3.90;;
69369;SDS011;56530;42.640;23.372;2023-08-01T08:36:52;6.53;;;4.00;;
69369;SDS011;56530;42.640;23.372;2023-08-01T08:39:17;4.75;;;3.88;;
69369;SDS011;56530;42.640;23.372;2023-08-01T08:41:47;5.87;;;3.73;;
69369;SDS011;56530;42.640;23.372;2023-08-01T08:44:17;7.25;;;4.28;;
69369;SDS011;56530;42.640;23.372;2023-08-01T08:46:45;6.55;;;3.90;;
69369;SDS011;56530;42.640;23.372;2023-08-01T08:49:14;6.82;;;3.55;;
69369;SDS011;56530;42.640;23.372;2023-08-01T08:51:40;3.58;;;3.08;;
69369;SDS011;56530;42.640;23.372;2023-08-01T08:54:06;7.35;;;3.30;;
69369;SDS011;56530;42.640;23.372;2023-08-01T08:56:33;3.77;;;3.40;;
69369;SDS011;56530;42.640;23.372;2023-08-01T08:58:59;6.55;;;3.88;;
69369;SDS011;56530;42.640;23.372;2023-08-01T09:01:25;8.45;;;3.65;;
69369;SDS011;56530;42.640;23.372;2023-08-01T09:03:51;4.68;;;3.45;;
69369;SDS011;56530;42.640;23.372;2023-08-01T09:06:21;3.35;;;3.05;;
69369;SDS011;56530;42.640;23.372;2023-08-01T09:08:56;4.45;;;3.15;;
69369;SDS011;56530;42.640;23.372;2023-08-01T09:11:25;4.50;;;2.92;;
69369;SDS011;56530;42.640;23.372;2023-08-01T09:13:50;6.32;;;3.20;;
69369;SDS011;56530;42.640;23.372;2023-08-01T09:16:15;4.10;;;3.60;;
69369;SDS011;56530;42.640;23.372;2023-08-01T09:18:48;3.60;;;3.30;;
69369;SDS011;56530;42.640;23.372;2023-08-01T09:21:22;8.60;;;3.70;;
69369;SDS011;56530;42.640;23.372;2023-08-01T09:23:48;6.03;;;3.00;;
69369;SDS011;56530;42.640;23.372;2023-08-01T09:26:14;3.13;;;2.42;;
69369;SDS011;56530;42.640;23.372;2023-08-01T09:28:40;3.65;;;3.30;;
69369;SDS011;56530;42.640;23.372;2023-08-01T09:31:05;3.35;;;2.75;;
69369;SDS011;56530;42.640;23.372;2023-08-01T09:33:40;4.38;;;3.35;;
69369;SDS011;56530;42.640;23.372;2023-08-01T09:36:07;8.82;;;2.92;;
69369;SDS011;56530;42.640;23.372;2023-08-01T09:38:36;5.50;;;3.35;;
69369;SDS011;56530;42.640;23.372;2023-08-01T09:41:03;4.40;;;3.95;;
69369;SDS011;56530;42.640;23.372;2023-08-01T09:43:38;3.55;;;3.25;;
69369;SDS011;56530;42.640;23.372;2023-08-01T09:46:06;9.30;;;3.75;;
69369;SDS011;56530;42.640;23.372;2023-08-01T09:48:31;4.90;;;3.45;;
69369;SDS011;56530;42.640;23.372;2023-08-01T09:51:16;9.32;;;4.40;;
69369;SDS011;56530;42.640;23.372;2023-08-01T09:53:49;7.18;;;3.53;;
69369;SDS011;56530;42.640;23.372;2023-08-01T09:56:18;6.22;;;3.60;;
69369;SDS011;56530;42.640;23.372;2023-08-01T09:58:45;7.60;;;4.32;;
69369;SDS011;56530;42.640;23.372;2023-08-01T10:01:12;3.95;;;2.97;;
69369;SDS011;56530;42.640;23.372;2023-08-01T10:03:38;8.05;;;3.35;;
69369;SDS011;56530;42.640;23.372;2023-08-01T10:06:06;6.18;;;3.22;;
69369;SDS011;56530;42.640;23.372;2023-08-01T10:08:32;3.95;;;3.65;;
69369;SDS011;56530;42.640;23.372;2023-08-01T10:10:58;6.17;;;3.90;;
69369;SDS011;56530;42.640;23.372;2023-08-01T10:13:23;4.30;;;3.90;;
69369;SDS011;56530;42.640;23.372;2023-08-01T10:15:52;5.35;;;3.67;;
69369;SDS011;56530;42.640;23.372;2023-08-01T10:18:18;5.15;;;4.05;;
69369;SDS011;56530;42.640;23.372;2023-08-01T10:20:43;7.57;;;3.67;;
69369;SDS011;56530;42.640;23.372;2023-08-01T10:23:09;5.27;;;4.07;;
69369;SDS011;56530;42.640;23.372;2023-08-01T10:25:35;6.40;;;3.28;;
69369;SDS011;56530;42.640;23.372;2023-08-01T10:28:02;5.10;;;3.58;;
69369;SDS011;56530;42.640;23.372;2023-08-01T10:30:28;5.72;;;3.13;;
69369;SDS011;56530;42.640;23.372;2023-08-01T10:32:55;4.47;;;4.00;;
69369;SDS011;56530;42.640;23.372;2023-08-01T10:35:31;4.65;;;3.25;;
69369;SDS011;56530;42.640;23.372;2023-08-01T10:38:04;5.00;;;3.70;;
69369;SDS011;56530;42.640;23.372;2023-08-01T10:40:33;4.97;;;3.83;;
69369;SDS011;56530;42.640;23.372;2023-08-01T10:43:00;6.20;;;3.50;;
69369;SDS011;56530;42.640;23.372;2023-08-01T10:45:25;5.23;;;3.70;;
69369;SDS011;56530;42.640;23.372;2023-08-01T10:47:53;5.32;;;3.75;;
69369;SDS011;56530;42.640;23.372;2023-08-01T10:50:19;5.10;;;3.70;;
69369;SDS011;56530;42.640;23.372;2023-08-01T10:52:45;4.65;;;2.80;;
69369;SDS011;56530;42.640;23.372;2023-08-01T10:55:11;3.70;;;3.00;;
69369;SDS011;56530;42.640;23.372;2023-08-01T10:57:38;4.57;;;3.85;;
69369;SDS011;56530;42.640;23.372;2023-08-01T11:00:04;5.95;;;4.18;;
69369;SDS011;56530;42.640;23.372;2023-08-01T11:02:34;5.97;;;3.42;;
69369;SDS011;56530;42.640;23.372;2023-08-01T11:05:06;4.22;;;3.63;;
69369;SDS011;56530;42.640;23.372;2023-08-01T11:07:33;5.80;;;3.30;;
69369;SDS011;56530;42.640;23.372;2023-08-01T11:10:09;3.67;;;3.13;;
69369;SDS011;56530;42.640;23.372;2023-08-01T11:12:40;4.00;;;3.63;;
69369;SDS011;56530;42.640;23.372;2023-08-01T11:15:07;5.00;;;3.78;;
69369;SDS011;56530;42.640;23.372;2023-08-01T11:17:38;6.32;;;3.47;;
69369;SDS011;56530;42.640;23.372;2023-08-01T11:20:05;3.97;;;3.05;;
69369;SDS011;56530;42.640;23.372;2023-08-01T11:22:32;7.30;;;3.50;;
69369;SDS011;56530;42.640;23.372;2023-08-01T11:24:58;4.03;;;3.63;;
69369;SDS011;56530;42.640;23.372;2023-08-01T11:27:24;5.50;;;3.37;;
69369;SDS011;56530;42.640;23.372;2023-08-01T11:29:50;6.68;;;3.00;;
69369;SDS011;56530;42.640;23.372;2023-08-01T11:32:15;3.20;;;2.88;;
69369;SDS011;56530;42.640;23.372;2023-08-01T11:34:41;4.68;;;3.28;;
69369;SDS011;56530;42.640;23.372;2023-08-01T11:37:11;7.80;;;2.97;;
69369;SDS011;56530;42.640;23.372;2023-08-01T11:39:40;3.53;;;2.92;;
69369;SDS011;56530;42.640;23.372;2023-08-01T11:42:05;7.75;;;3.53;;
69369;SDS011;56530;42.640;23.372;2023-08-01T11:44:31;4.45;;;3.30;;
69369;SDS011;56530;42.640;23.372;2023-08-01T11:46:57;4.78;;;3.65;;
69369;SDS011;56530;42.640;23.372;2023-08-01T11:49:22;4.50;;;3.70;;
69369;SDS011;56530;42.640;23.372;2023-08-01T11:51:48;4.73;;;3.67;;
69369;SDS011;56530;42.640;23.372;2023-08-01T11:54:14;4.97;;;3.87;;
69369;SDS011;56530;42.640;23.372;2023-08-01T11:56:40;4.43;;;3.03;;
69369;SDS011;56530;42.640;23.372;2023-08-01T11:59:10;7.22;;;2.83;;
69369;SDS011;56530;42.640;23.372;2023-08-01T12:01:40;3.15;;;2.88;;
69369;SDS011;56530;42.640;23.372;2023-08-01T12:04:10;3.42;;;3.13;;
69369;SDS011;56530;42.640;23.372;2023-08-01T12:06:35;3.65;;;3.28;;
69369;SDS011;56530;42.640;23.372;2023-08-01T12:09:12;5.47;;;3.70;;
69369;SDS011;56530;42.640;23.372;2023-08-01T12:11:38;4.63;;;3.08;;
69369;SDS011;56530;42.640;23.372;2023-08-01T12:16:37;5.97;;;3.13;;
69369;SDS011;56530;42.640;23.372;2023-08-01T12:19:04;5.22;;;3.60;;
69369;SDS011;56530;42.640;23.372;2023-08-01T12:21:30;5.82;;;4.57;;
69369;SDS011;56530;42.640;23.372;2023-08-01T12:23:56;4.93;;;3.78;;
69369;SDS011;56530;42.640;23.372;2023-08-01T12:26:22;5.70;;;3.33;;
69369;SDS011;56530;42.640;23.372;2023-08-01T12:28:48;5.80;;;3.53;;
69369;SDS011;56530;42.640;23.372;2023-08-01T12:31:20;4.65;;;2.70;;
69369;SDS011;56530;42.640;23.372;2023-08-01T12:33:47;4.50;;;2.75;;
69369;SDS011;56530;42.640;23.372;2023-08-01T12:36:12;3.25;;;2.83;;
69369;SDS011;56530;42.640;23.372;2023-08-01T12:38:38;4.25;;;3.13;;
69369;SDS011;56530;42.640;23.372;2023-08-01T12:41:04;3.93;;;3.10;;
69369;SDS011;56530;42.640;23.372;2023-08-01T12:43:29;5.90;;;3.00;;
69369;SDS011;56530;42.640;23.372;2023-08-01T12:45:55;3.50;;;3.03;;
69369;SDS011;56530;42.640;23.372;2023-08-01T12:48:23;3.28;;;2.50;;
69369;SDS011;56530;42.640;23.372;2023-08-01T12:50:48;3.03;;;2.83;;
69369;SDS011;56530;42.640;23.372;2023-08-01T12:53:13;8.70;;;3.20;;
69369;SDS011;56530;42.640;23.372;2023-08-01T12:55:42;3.40;;;2.60;;
69369;SDS011;56530;42.640;23.372;2023-08-01T12:58:09;6.22;;;3.03;;
69369;SDS011;56530;42.640;23.372;2023-08-01T13:00:34;6.75;;;3.97;;
69369;SDS011;56530;42.640;23.372;2023-08-01T13:03:00;10.73;;;3.15;;
69369;SDS011;56530;42.640;23.372;2023-08-01T13:05:25;4.53;;;3.20;;
69369;SDS011;56530;42.640;23.372;2023-08-01T13:07:50;7.53;;;3.60;;
69369;SDS011;56530;42.640;23.372;2023-08-01T13:10:16;6.20;;;3.08;;
69369;SDS011;56530;42.640;23.372;2023-08-01T13:12:41;3.45;;;3.13;;
69369;SDS011;56530;42.640;23.372;2023-08-01T13:15:07;5.93;;;3.08;;
69369;SDS011;56530;42.640;23.372;2023-08-01T13:17:32;5.30;;;3.60;;
69369;SDS011;56530;42.640;23.372;2023-08-01T13:19:58;3.80;;;2.70;;
69369;SDS011;56530;42.640;23.372;2023-08-01T13:22:23;2.72;;;2.45;;
69369;SDS011;56530;42.640;23.372;2023-08-01T13:24:49;4.28;;;2.92;;
69369;SDS011;56530;42.640;23.372;2023-08-01T13:27:14;5.23;;;2.80;;
69369;SDS011;56530;42.640;23.372;2023-08-01T13:29:40;5.15;;;3.00;;
69369;SDS011;56530;42.640;23.372;2023-08-01T13:32:05;2.65;;;2.45;;
69369;SDS011;56530;42.640;23.372;2023-08-01T13:34:32;3.55;;;2.47;;
69369;SDS011;56530;42.640;23.372;2023-08-01T13:36:57;3.60;;;2.28;;
69369;SDS011;56530;42.640;23.372;2023-08-01T13:39:23;4.80;;;2.80;;
69369;SDS011;56530;42.640;23.372;2023-08-01T13:41:48;4.10;;;2.83;;
69369;SDS011;56530;42.640;23.372;2023-08-01T13:44:13;3.00;;;2.50;;
69369;SDS011;56530;42.640;23.372;2023-08-01T13:46:39;4.53;;;2.40;;
69369;SDS011;56530;42.640;23.372;2023-08-01T13:49:04;3.70;;;2.85;;
69369;SDS011;56530;42.640;23.372;2023-08-01T13:51:33;4.60;;;2.30;;
69369;SDS011;56530;42.640;23.372;2023-08-01T13:53:59;2.80;;;2.47;;
69369;SDS011;56530;42.640;23.372;2023-08-01T13:56:24;2.53;;;2.33;;
69369;SDS011;56530;42.640;23.372;2023-08-01T13:58:51;6.23;;;2.67;;
69369;SDS011;56530;42.640;23.372;2023-08-01T14:01:16;6.68;;;2.75;;
69369;SDS011;56530;42.640;23.372;2023-08-01T14:03:43;6.78;;;2.67;;
69369;SDS011;56530;42.640;23.372;2023-08-01T14:06:10;3.03;;;2.50;;
69369;SDS011;56530;42.640;23.372;2023-08-01T14:08:37;4.65;;;2.80;;
69369;SDS011;56530;42.640;23.372;2023-08-01T14:11:04;3.83;;;2.78;;
69369;SDS011;56530;42.640;23.372;2023-08-01T14:13:30;3.47;;;2.88;;
69369;SDS011;56530;42.640;23.372;2023-08-01T14:15:56;5.60;;;3.50;;
69369;SDS011;56530;42.640;23.372;2023-08-01T14:18:21;4.87;;;2.93;;
69369;SDS011;56530;42.640;23.372;2023-08-01T14:20:47;4.07;;;2.65;;
69369;SDS011;56530;42.640;23.372;2023-08-01T14:23:12;4.30;;;2.17;;
69369;SDS011;56530;42.640;23.372;2023-08-01T14:25:38;4.90;;;2.70;;
69369;SDS011;56530;42.640;23.372;2023-08-01T14:28:03;4.10;;;3.10;;
69369;SDS011;56530;42.640;23.372;2023-08-01T14:30:29;2.80;;;2.60;;